Time;durP1;ratioP1;P1;durP2;ratioP2;P2;SDS_P1;SDS_P2;PMS_P1;PMS_P2;Temp;Humidity;BMP_temperature;BMP_pressure;BME280_temperature;BME280_humidity;BME280_pressure;Samples;Min_cycle;Max_cycle;Signal;HPM_P1;HPM_P2
2021/09/08 00:00:52;;;;;;;13.67;10.03;;;16.00;99.90;;;;;;5010657;28;20484;-75
2021/09/08 00:03:37;;;;;;;14.83;10.53;;;16.10;99.90;;;;;;5009855;28;20458;-75
2021/09/08 00:06:24;;;;;;;14.67;10.13;;;16.00;99.90;;;;;;5012481;28;20976;-75
2021/09/08 00:09:09;;;;;;;14.80;11.27;;;16.00;99.90;;;;;;5009602;28;20429;-75
2021/09/08 00:11:56;;;;;;;12.27;10.97;;;15.90;99.90;;;;;;5009843;28;20514;-75
2021/09/08 00:14:42;;;;;;;16.00;12.10;;;15.90;99.90;;;;;;5010301;28;20425;-74
2021/09/08 00:17:27;;;;;;;13.73;10.33;;;15.90;99.90;;;;;;5010901;28;20929;-76
2021/09/08 00:20:15;;;;;;;19.53;11.13;;;15.90;99.90;;;;;;5011555;28;20449;-75
2021/09/08 00:23:00;;;;;;;11.97;10.30;;;15.80;99.90;;;;;;5010114;28;21021;-75
2021/09/08 00:25:46;;;;;;;13.70;11.07;;;15.90;99.90;;;;;;5010558;28;20450;-75
2021/09/08 00:28:33;;;;;;;16.83;11.17;;;15.90;99.90;;;;;;5009359;28;20462;-75
2021/09/08 00:31:19;;;;;;;18.50;11.33;;;15.90;99.90;;;;;;5005899;28;20556;-74
2021/09/08 00:34:04;;;;;;;12.30;10.73;;;15.80;99.90;;;;;;5010124;28;20454;-74
2021/09/08 00:36:49;;;;;;;13.47;10.93;;;15.80;99.90;;;;;;5012547;28;20409;-75
2021/09/08 00:39:35;;;;;;;15.00;10.93;;;15.60;99.90;;;;;;5006898;28;20488;-75
2021/09/08 00:42:21;;;;;;;15.83;10.87;;;15.70;99.90;;;;;;4996151;28;21076;-74
2021/09/08 00:45:09;;;;;;;12.53;9.83;;;15.70;99.90;;;;;;5009832;28;20421;-75
2021/09/08 00:47:55;;;;;;;19.53;11.10;;;15.70;99.90;;;;;;5009851;28;20437;-75
2021/09/08 00:50:40;;;;;;;13.70;9.90;;;15.70;99.90;;;;;;5011624;28;20435;-75
2021/09/08 00:53:27;;;;;;;14.40;11.10;;;15.60;99.90;;;;;;5010395;28;20445;-75
2021/09/08 00:56:14;;;;;;;15.40;11.70;;;15.70;99.90;;;;;;5003576;28;20763;-75
2021/09/08 00:59:00;;;;;;;17.57;11.40;;;15.80;99.90;;;;;;5011733;28;20796;-74
2021/09/08 01:01:47;;;;;;;16.87;10.43;;;15.80;99.90;;;;;;5008948;28;20500;-75
2021/09/08 01:04:33;;;;;;;14.50;10.73;;;15.70;99.90;;;;;;5009880;28;20826;-75
2021/09/08 01:07:19;;;;;;;14.13;9.80;;;15.70;99.90;;;;;;5012912;28;20430;-75
2021/09/08 01:10:05;;;;;;;15.27;10.70;;;15.60;99.90;;;;;;5007150;28;20525;-75
2021/09/08 01:12:51;;;;;;;12.77;10.47;;;15.60;99.90;;;;;;5011258;28;20482;-75
2021/09/08 01:15:37;;;;;;;18.87;9.73;;;15.50;99.90;;;;;;5014695;28;20938;-75
2021/09/08 01:18:24;;;;;;;17.03;10.87;;;15.60;99.90;;;;;;5013953;28;20472;-75
2021/09/08 01:21:09;;;;;;;18.40;11.50;;;15.60;99.90;;;;;;5014996;28;20479;-75
2021/09/08 01:23:56;;;;;;;14.03;10.47;;;15.60;99.90;;;;;;5009602;28;20434;-75
2021/09/08 01:26:46;;;;;;;13.00;10.80;;;15.50;99.90;;;;;;5013491;28;20429;-74
2021/09/08 01:29:31;;;;;;;11.20;9.80;;;15.60;99.90;;;;;;5013560;28;20870;-75
2021/09/08 01:32:17;;;;;;;15.73;11.37;;;15.60;99.90;;;;;;5013981;28;20445;-75
2021/09/08 01:35:03;;;;;;;14.37;10.80;;;15.50;99.90;;;;;;5013139;28;20449;-75
2021/09/08 01:37:49;;;;;;;12.10;10.17;;;15.60;99.90;;;;;;5012051;28;20409;-75
2021/09/08 01:40:37;;;;;;;19.80;10.70;;;15.60;99.90;;;;;;5012193;28;20600;-75
2021/09/08 01:43:24;;;;;;;12.80;10.63;;;15.50;99.90;;;;;;5013588;28;20512;-74
2021/09/08 01:46:09;;;;;;;15.70;9.77;;;15.50;99.90;;;;;;5012661;28;20462;-75
2021/09/08 01:48:55;;;;;;;21.10;10.93;;;15.50;99.90;;;;;;5014291;28;20406;-74
2021/09/08 01:51:41;;;;;;;20.27;10.73;;;15.50;99.90;;;;;;5010977;28;20989;-73
2021/09/08 01:54:27;;;;;;;11.13;9.37;;;15.50;99.90;;;;;;5013237;28;20421;-75
2021/09/08 01:57:13;;;;;;;14.20;10.13;;;15.50;99.90;;;;;;5011951;28;20811;-74
2021/09/08 01:59:59;;;;;;;14.47;10.07;;;15.40;99.90;;;;;;5013010;28;20452;-74
2021/09/08 02:02:45;;;;;;;12.83;9.50;;;15.40;99.90;;;;;;5012683;28;20469;-75
2021/09/08 02:05:30;;;;;;;12.80;9.43;;;15.40;99.90;;;;;;5013037;28;20454;-75
2021/09/08 02:08:16;;;;;;;10.70;9.60;;;15.30;99.90;;;;;;5010237;28;20424;-75
2021/09/08 02:11:01;;;;;;;21.50;10.77;;;15.30;99.90;;;;;;5013178;28;20450;-74
2021/09/08 02:13:49;;;;;;;15.60;11.60;;;15.30;99.90;;;;;;5013182;28;20475;-75
2021/09/08 02:16:34;;;;;;;11.30;9.77;;;15.30;99.90;;;;;;5011837;28;20632;-75
2021/09/08 02:19:20;;;;;;;12.80;9.40;;;15.30;99.90;;;;;;5008036;28;20528;-74
2021/09/08 02:22:05;;;;;;;10.00;8.97;;;15.20;99.90;;;;;;5005101;28;20994;-75
2021/09/08 02:24:51;;;;;;;19.30;9.97;;;15.20;99.90;;;;;;5011486;28;20469;-75
2021/09/08 02:27:36;;;;;;;11.73;9.53;;;15.10;99.90;;;;;;5012551;28;20506;-74
2021/09/08 02:30:23;;;;;;;16.40;9.40;;;15.10;99.90;;;;;;5011495;28;20486;-73
2021/09/08 02:33:09;;;;;;;11.70;9.67;;;15.10;99.90;;;;;;5013527;28;20436;-75
2021/09/08 02:35:54;;;;;;;16.63;11.10;;;15.10;99.90;;;;;;5013181;28;20449;-74
2021/09/08 02:38:40;;;;;;;16.73;10.93;;;15.20;99.90;;;;;;5010229;28;20433;-75
2021/09/08 02:41:25;;;;;;;12.10;8.90;;;15.20;99.90;;;;;;5012518;28;20767;-75
2021/09/08 02:44:11;;;;;;;13.27;11.20;;;15.20;99.90;;;;;;5012720;28;20873;-74
2021/09/08 02:46:58;;;;;;;12.93;9.67;;;15.20;99.90;;;;;;5011427;28;20520;-74
2021/09/08 02:49:43;;;;;;;16.00;11.50;;;15.30;99.90;;;;;;5012399;28;20443;-75
2021/09/08 02:52:29;;;;;;;12.67;9.47;;;15.30;99.90;;;;;;5011116;28;20524;-75
2021/09/08 02:55:15;;;;;;;12.27;9.17;;;15.20;99.90;;;;;;5011878;28;20477;-75
2021/09/08 02:58:00;;;;;;;14.57;10.60;;;15.10;99.90;;;;;;5006197;28;21049;-75
2021/09/08 03:00:46;;;;;;;11.47;9.80;;;15.00;99.90;;;;;;5010170;28;20988;-75
2021/09/08 03:03:32;;;;;;;13.60;11.20;;;14.90;99.90;;;;;;5013337;28;20400;-75
2021/09/08 03:06:18;;;;;;;13.40;11.27;;;14.90;99.90;;;;;;5010643;28;20445;-75
2021/09/08 03:09:04;;;;;;;16.73;10.00;;;14.90;99.90;;;;;;5011983;28;20452;-74
2021/09/08 03:11:50;;;;;;;11.90;9.10;;;15.00;99.90;;;;;;5011110;28;20529;-74
2021/09/08 03:14:35;;;;;;;12.20;10.77;;;15.10;99.90;;;;;;5011688;28;20393;-74
2021/09/08 03:17:21;;;;;;;12.80;10.27;;;15.20;99.90;;;;;;5009758;28;20446;-75
2021/09/08 03:20:09;;;;;;;12.37;10.37;;;15.10;99.90;;;;;;5008925;28;20473;-74
2021/09/08 03:22:55;;;;;;;12.60;10.20;;;15.30;99.90;;;;;;5012212;28;20428;-75
2021/09/08 03:25:40;;;;;;;13.83;9.33;;;15.20;99.90;;;;;;5011691;28;20495;-75
2021/09/08 03:28:26;;;;;;;16.30;10.53;;;15.20;99.90;;;;;;5009846;28;20929;-75
2021/09/08 03:31:13;;;;;;;12.60;11.17;;;15.20;99.90;;;;;;5012320;28;20446;-74
2021/09/08 03:33:59;;;;;;;10.37;9.20;;;15.20;99.90;;;;;;5010358;28;20580;-75
2021/09/08 03:36:45;;;;;;;12.33;8.87;;;15.10;99.90;;;;;;5007893;28;20417;-74
2021/09/08 03:39:31;;;;;;;12.40;9.73;;;15.00;99.90;;;;;;5012227;28;20981;-75
2021/09/08 03:42:17;;;;;;;11.10;9.83;;;15.00;99.90;;;;;;5006782;28;20413;-74
2021/09/08 03:45:03;;;;;;;12.87;10.17;;;15.00;99.90;;;;;;5010754;28;20445;-74
2021/09/08 03:47:48;;;;;;;11.90;9.60;;;14.90;99.90;;;;;;5011526;28;20420;-74
2021/09/08 03:50:34;;;;;;;13.57;10.07;;;14.90;99.90;;;;;;5009344;28;20420;-75
2021/09/08 03:53:21;;;;;;;11.90;10.67;;;14.70;99.90;;;;;;5011045;28;20482;-75
2021/09/08 03:56:07;;;;;;;13.70;10.10;;;14.70;99.90;;;;;;4992068;28;20390;-75
2021/09/08 03:58:53;;;;;;;17.43;10.47;;;14.60;99.90;;;;;;5011180;28;20499;-74
2021/09/08 04:01:39;;;;;;;14.73;10.93;;;14.50;99.90;;;;;;5010775;28;20523;-75
2021/09/08 04:04:24;;;;;;;16.00;11.33;;;14.60;99.90;;;;;;5008283;28;20424;-74
2021/09/08 04:07:10;;;;;;;15.53;10.90;;;14.50;99.90;;;;;;5010858;28;20996;-75
2021/09/08 04:09:56;;;;;;;13.23;10.60;;;14.50;99.90;;;;;;5011707;28;20395;-74
2021/09/08 04:12:42;;;;;;;11.33;9.93;;;14.50;99.90;;;;;;5010969;28;20480;-75
2021/09/08 04:15:28;;;;;;;17.80;10.80;;;14.50;99.90;;;;;;5011598;28;20407;-75
2021/09/08 04:18:13;;;;;;;12.73;10.37;;;14.60;99.90;;;;;;5007903;28;20424;-75
2021/09/08 04:20:59;;;;;;;11.40;9.83;;;14.60;99.90;;;;;;5011407;28;21078;-75
2021/09/08 04:23:44;;;;;;;14.00;10.47;;;14.70;99.90;;;;;;5009158;28;20467;-74
2021/09/08 04:26:31;;;;;;;12.13;9.47;;;14.70;99.90;;;;;;5010103;28;20455;-75
2021/09/08 04:29:17;;;;;;;11.37;9.93;;;14.80;99.90;;;;;;5011828;28;20598;-74
2021/09/08 04:32:03;;;;;;;14.67;11.73;;;14.80;99.90;;;;;;5010405;28;20441;-75
2021/09/08 04:34:49;;;;;;;16.13;10.13;;;14.70;99.90;;;;;;5008905;28;20567;-75
2021/09/08 04:37:36;;;;;;;14.80;10.50;;;14.60;99.90;;;;;;5010450;28;20428;-75
2021/09/08 04:40:22;;;;;;;14.10;10.80;;;14.60;99.90;;;;;;5011722;28;20503;-75
2021/09/08 04:43:09;;;;;;;13.10;9.73;;;14.50;99.90;;;;;;5010355;28;20441;-75
2021/09/08 04:45:55;;;;;;;18.73;10.10;;;14.50;99.90;;;;;;5010514;28;20467;-74
2021/09/08 04:48:40;;;;;;;14.03;10.53;;;14.50;99.90;;;;;;5009625;28;20492;-75
2021/09/08 04:51:26;;;;;;;13.33;10.00;;;14.50;99.90;;;;;;5009690;28;20480;-75
2021/09/08 04:54:13;;;;;;;16.00;11.00;;;14.50;99.90;;;;;;5014184;28;20449;-74
2021/09/08 04:56:58;;;;;;;13.07;11.07;;;14.50;99.90;;;;;;5015351;28;20432;-75
2021/09/08 04:59:45;;;;;;;14.13;10.03;;;14.40;99.90;;;;;;5014086;28;20782;-74
2021/09/08 05:02:31;;;;;;;14.50;9.57;;;14.30;99.90;;;;;;5011000;28;20473;-74
2021/09/08 05:05:17;;;;;;;13.23;10.57;;;14.40;99.90;;;;;;5006462;28;20933;-74
2021/09/08 05:08:02;;;;;;;12.93;10.17;;;14.40;99.90;;;;;;5014887;28;20400;-75
2021/09/08 05:10:48;;;;;;;14.93;10.77;;;14.50;99.90;;;;;;5013900;28;20978;-75
2021/09/08 05:13:34;;;;;;;13.03;10.40;;;14.40;99.90;;;;;;5015036;28;20943;-75
2021/09/08 05:16:21;;;;;;;13.20;11.10;;;14.40;99.90;;;;;;5007680;28;20417;-74
2021/09/08 05:19:06;;;;;;;11.90;10.00;;;14.40;99.90;;;;;;5013197;28;20625;-75
2021/09/08 05:21:52;;;;;;;13.20;10.37;;;14.30;99.90;;;;;;5014659;28;20477;-75
2021/09/08 05:24:37;;;;;;;13.67;11.30;;;14.40;99.90;;;;;;5013355;28;20449;-75
2021/09/08 05:27:23;;;;;;;12.77;11.00;;;14.40;99.90;;;;;;5013982;28;20856;-74
2021/09/08 05:30:09;;;;;;;14.43;11.43;;;14.40;99.90;;;;;;5013000;28;20420;-74
2021/09/08 05:32:56;;;;;;;11.97;10.70;;;14.30;99.90;;;;;;5011590;28;20522;-75
2021/09/08 05:35:42;;;;;;;15.90;10.93;;;14.40;99.90;;;;;;5013277;28;20426;-75
2021/09/08 05:38:27;;;;;;;17.40;11.10;;;14.50;99.90;;;;;;5013757;28;20452;-75
2021/09/08 05:41:13;;;;;;;11.90;10.07;;;14.70;99.90;;;;;;5008142;28;20452;-74
2021/09/08 05:43:59;;;;;;;13.60;9.30;;;14.70;99.90;;;;;;5012958;28;20493;-74
2021/09/08 05:46:45;;;;;;;14.50;10.30;;;14.90;99.90;;;;;;5010906;28;20432;-74
2021/09/08 05:49:32;;;;;;;12.17;10.27;;;15.00;99.90;;;;;;5014479;28;20411;-75
2021/09/08 05:52:18;;;;;;;18.33;10.77;;;15.00;99.90;;;;;;5008613;28;20437;-74
2021/09/08 05:55:04;;;;;;;12.60;10.73;;;15.00;99.90;;;;;;5006356;28;20557;-76
2021/09/08 05:57:49;;;;;;;13.00;10.97;;;15.00;99.90;;;;;;5013242;28;20396;-75
2021/09/08 06:00:34;;;;;;;12.50;10.13;;;15.10;99.90;;;;;;5012090;28;20579;-75
2021/09/08 06:03:20;;;;;;;15.20;10.97;;;15.10;99.90;;;;;;5011325;28;20450;-75
2021/09/08 06:06:07;;;;;;;17.90;11.50;;;15.10;99.90;;;;;;5014180;28;20941;-75
2021/09/08 06:08:53;;;;;;;13.40;11.23;;;15.10;99.90;;;;;;5013916;28;20429;-76
2021/09/08 06:11:38;;;;;;;12.33;10.87;;;15.20;99.90;;;;;;5011578;28;21026;-76
2021/09/08 06:14:25;;;;;;;13.30;9.90;;;15.30;99.90;;;;;;5010616;28;20420;-76
2021/09/08 06:17:10;;;;;;;14.30;11.93;;;15.40;99.90;;;;;;5013609;28;20405;-76
2021/09/08 06:19:56;;;;;;;12.57;11.27;;;15.50;99.90;;;;;;5012839;28;20624;-75
2021/09/08 06:22:43;;;;;;;11.50;10.30;;;15.60;99.90;;;;;;5012582;28;20781;-76
2021/09/08 06:25:30;;;;;;;12.27;10.10;;;15.70;99.90;;;;;;5013463;28;20516;-76
2021/09/08 06:28:18;;;;;;;15.90;13.13;;;15.80;99.90;;;;;;4998505;28;20424;-76
2021/09/08 06:31:03;;;;;;;15.67;11.87;;;15.80;99.90;;;;;;5008925;28;20450;-76
2021/09/08 06:33:50;;;;;;;13.27;11.87;;;15.90;99.90;;;;;;5011447;28;20432;-76
2021/09/08 06:36:36;;;;;;;16.53;12.60;;;16.00;99.90;;;;;;5011992;28;20448;-75
2021/09/08 06:39:22;;;;;;;23.67;13.37;;;16.00;99.90;;;;;;5013208;28;20407;-75
2021/09/08 06:42:09;;;;;;;16.67;13.20;;;16.10;99.90;;;;;;5012653;28;20503;-75
2021/09/08 06:44:55;;;;;;;18.30;12.83;;;16.10;99.90;;;;;;5010535;28;21506;-75
2021/09/08 06:47:40;;;;;;;17.53;12.80;;;16.30;99.90;;;;;;5009121;28;21050;-75
2021/09/08 06:50:26;;;;;;;17.30;12.77;;;16.40;99.90;;;;;;5013121;28;20426;-76
2021/09/08 06:53:12;;;;;;;14.80;12.53;;;16.50;99.90;;;;;;5005189;28;20442;-74
2021/09/08 06:55:59;;;;;;;17.33;13.50;;;16.60;99.90;;;;;;5011879;28;20446;-76
2021/09/08 06:58:44;;;;;;;15.70;12.47;;;16.80;99.90;;;;;;5011246;28;20476;-75
2021/09/08 07:01:30;;;;;;;14.80;12.17;;;16.90;99.90;;;;;;5005913;28;20952;-76
2021/09/08 07:04:16;;;;;;;17.03;12.13;;;17.00;99.90;;;;;;5006723;28;20425;-76
2021/09/08 07:07:01;;;;;;;17.57;11.63;;;17.10;99.90;;;;;;5012725;28;20412;-75
2021/09/08 07:09:47;;;;;;;18.70;13.13;;;17.30;99.90;;;;;;5012730;28;20434;-76
2021/09/08 07:12:34;;;;;;;17.60;13.30;;;17.40;99.90;;;;;;5012719;28;20409;-75
2021/09/08 07:15:20;;;;;;;27.07;13.70;;;17.40;99.90;;;;;;5011910;28;20872;-75
2021/09/08 07:18:05;;;;;;;14.30;11.90;;;17.40;99.90;;;;;;4993605;28;20411;-74
2021/09/08 07:20:51;;;;;;;16.67;13.53;;;17.60;99.90;;;;;;5002289;28;20461;-75
2021/09/08 07:23:37;;;;;;;14.10;12.57;;;17.70;99.90;;;;;;5005881;28;20483;-75
2021/09/08 07:26:22;;;;;;;14.60;11.77;;;17.80;99.90;;;;;;5011316;28;20502;-75
2021/09/08 07:29:09;;;;;;;17.00;13.00;;;17.90;99.90;;;;;;5010355;28;20576;-75
2021/09/08 07:31:55;;;;;;;14.57;12.00;;;18.00;99.90;;;;;;5010210;28;20810;-74
2021/09/08 07:34:41;;;;;;;15.63;12.50;;;18.00;99.90;;;;;;5010709;28;20874;-75
2021/09/08 07:37:27;;;;;;;18.03;12.93;;;18.10;99.90;;;;;;5009812;28;20441;-75
2021/09/08 07:40:12;;;;;;;15.07;12.43;;;18.30;99.90;;;;;;5004577;28;20424;-75
2021/09/08 07:42:58;;;;;;;20.60;11.80;;;18.40;99.90;;;;;;5008951;28;20466;-74
2021/09/08 07:45:45;;;;;;;15.20;12.00;;;18.60;99.90;;;;;;5009894;28;20449;-74
2021/09/08 07:48:31;;;;;;;17.00;12.57;;;18.70;99.90;;;;;;5010194;28;20574;-75
2021/09/08 07:51:16;;;;;;;14.60;11.13;;;18.80;99.90;;;;;;5010899;28;20870;-75
2021/09/08 07:54:02;;;;;;;15.80;12.00;;;18.80;99.90;;;;;;5007254;28;20445;-75
2021/09/08 07:56:47;;;;;;;15.00;11.03;;;18.90;99.90;;;;;;5009936;28;20737;-74
2021/09/08 07:59:33;;;;;;;18.50;11.33;;;19.10;99.90;;;;;;5003003;28;20979;-75
2021/09/08 08:02:20;;;;;;;13.80;11.27;;;19.20;99.90;;;;;;5004489;28;20578;-75
2021/09/08 08:05:07;;;;;;;16.73;12.33;;;19.40;99.90;;;;;;5010203;28;20431;-75
2021/09/08 08:07:52;;;;;;;14.93;12.33;;;19.50;99.90;;;;;;5008069;28;20447;-76
2021/09/08 08:10:38;;;;;;;14.77;10.80;;;19.60;99.90;;;;;;5006334;28;21032;-75
2021/09/08 08:13:24;;;;;;;13.20;10.90;;;19.70;99.90;;;;;;5005640;28;20462;-75
2021/09/08 08:16:10;;;;;;;14.97;11.43;;;19.80;99.90;;;;;;5001168;28;20497;-76
2021/09/08 08:18:57;;;;;;;13.20;10.50;;;20.00;99.90;;;;;;5004675;28;20590;-76
2021/09/08 08:21:43;;;;;;;17.50;10.43;;;20.10;99.90;;;;;;5008500;28;20487;-76
2021/09/08 08:24:28;;;;;;;12.00;10.60;;;20.30;99.90;;;;;;5014007;28;20473;-73
2021/09/08 08:27:14;;;;;;;11.90;10.60;;;20.40;99.90;;;;;;5012128;28;20458;-75
2021/09/08 08:30:00;;;;;;;16.80;10.07;;;20.60;99.90;;;;;;5014719;28;20444;-76
2021/09/08 08:32:45;;;;;;;16.47;10.60;;;20.60;99.90;;;;;;5006668;28;20558;-75
2021/09/08 08:35:32;;;;;;;14.10;10.87;;;20.70;99.90;;;;;;5012579;28;20451;-75
2021/09/08 08:38:18;;;;;;;11.60;10.40;;;20.80;99.90;;;;;;5012461;28;20494;-76
2021/09/08 08:41:04;;;;;;;16.20;10.97;;;21.00;99.90;;;;;;5011363;28;21204;-75
2021/09/08 08:43:50;;;;;;;13.30;10.20;;;21.10;99.90;;;;;;5010172;28;20602;-76
2021/09/08 08:46:37;;;;;;;16.20;10.50;;;21.20;99.90;;;;;;5012528;28;20470;-75
2021/09/08 08:49:24;;;;;;;13.50;10.70;;;21.40;99.90;;;;;;5010382;28;21919;-75
2021/09/08 08:52:12;;;;;;;15.10;9.60;;;21.50;99.90;;;;;;5012200;28;20463;-74
2021/09/08 08:54:58;;;;;;;12.67;10.50;;;21.60;99.90;;;;;;5009518;28;20475;-76
2021/09/08 08:57:48;;;;;;;18.50;11.13;;;21.80;99.90;;;;;;5012633;28;20503;-75
2021/09/08 09:00:33;;;;;;;13.03;11.00;;;21.90;99.90;;;;;;5009835;28;20502;-75
2021/09/08 09:03:26;;;;;;;12.10;9.93;;;22.00;99.90;;;;;;5038894;22;21027;-75
2021/09/08 09:06:12;;;;;;;10.07;9.00;;;22.00;99.90;;;;;;5026788;28;20562;-74
2021/09/08 09:09:01;;;;;;;15.30;9.97;;;22.10;99.70;;;;;;5038610;28;20450;-73
2021/09/08 09:11:49;;;;;;;10.90;9.80;;;22.20;99.90;;;;;;5025027;28;20830;-74
2021/09/08 09:14:34;;;;;;;12.90;10.00;;;22.30;99.90;;;;;;5020224;28;20917;-74
2021/09/08 09:17:21;;;;;;;12.10;9.60;;;22.30;97.00;;;;;;5030486;28;20784;-74
2021/09/08 09:20:10;;;;;;;13.50;10.43;;;22.50;93.10;;;;;;5023654;28;20440;-74
2021/09/08 09:22:58;;;;;;;14.13;9.30;;;22.60;92.20;;;;;;5020790;28;20455;-74
2021/09/08 09:25:45;;;;;;;15.00;9.97;;;22.70;92.60;;;;;;5024694;28;20448;-75
2021/09/08 09:28:31;;;;;;;10.63;9.40;;;22.80;93.10;;;;;;5029548;28;20436;-74
2021/09/08 09:31:19;;;;;;;18.80;8.53;;;22.80;91.20;;;;;;5025272;28;20823;-75
2021/09/08 09:34:05;;;;;;;11.70;9.30;;;23.00;89.90;;;;;;5024824;28;21030;-74
2021/09/08 09:36:54;;;;;;;14.93;9.13;;;23.10;90.90;;;;;;5039132;28;20510;-74
2021/09/08 09:39:40;;;;;;;12.83;10.00;;;23.20;90.70;;;;;;5031932;28;20425;-75
2021/09/08 09:42:31;;;;;;;17.30;10.73;;;23.30;92.70;;;;;;5048232;28;20820;-75
2021/09/08 09:45:17;;;;;;;11.53;8.63;;;23.40;91.00;;;;;;5035043;28;20518;-75
2021/09/08 09:48:03;;;;;;;12.37;8.53;;;23.50;83.70;;;;;;5021477;28;20513;-75
2021/09/08 09:50:49;;;;;;;18.57;9.43;;;23.60;81.00;;;;;;5032775;28;20529;-76
2021/09/08 09:53:34;;;;;;;11.00;8.97;;;23.60;81.80;;;;;;5029861;28;20992;-75
2021/09/08 09:56:20;;;;;;;12.90;9.80;;;23.70;78.20;;;;;;5035189;28;20531;-75
2021/09/08 09:59:08;;;;;;;10.90;9.13;;;23.90;81.50;;;;;;5034835;28;20402;-75
2021/09/08 10:01:53;;;;;;;9.87;8.50;;;24.00;80.80;;;;;;5032420;28;20503;-74
2021/09/08 10:04:39;;;;;;;12.87;9.83;;;24.00;77.10;;;;;;5033513;28;20446;-75
2021/09/08 10:07:25;;;;;;;11.93;9.60;;;24.10;65.80;;;;;;5035192;28;20453;-76
2021/09/08 10:10:15;;;;;;;13.10;9.10;;;24.20;73.00;;;;;;5037439;28;20427;-75
2021/09/08 10:13:06;;;;;;;12.37;9.70;;;24.30;73.40;;;;;;5033432;28;20428;-74
2021/09/08 10:15:54;;;;;;;11.53;9.07;;;24.40;71.80;;;;;;5031736;28;20531;-75
2021/09/08 10:18:42;;;;;;;10.30;8.10;;;24.60;71.60;;;;;;5044922;28;20582;-75
2021/09/08 10:21:27;;;;;;;10.83;9.50;;;24.70;67.40;;;;;;5048005;28;20824;-76
2021/09/08 10:24:13;;;;;;;11.80;8.90;;;24.80;62.70;;;;;;5018679;28;20541;-76
2021/09/08 10:26:58;;;;;;;16.00;9.10;;;24.90;61.80;;;;;;5031699;28;20471;-75
2021/09/08 10:29:50;;;;;;;14.93;8.27;;;25.00;58.60;;;;;;5031992;28;20486;-76
2021/09/08 10:32:38;;;;;;;10.60;8.57;;;25.10;62.60;;;;;;5034835;28;20867;-76
2021/09/08 10:35:24;;;;;;;11.37;8.07;;;25.20;56.40;;;;;;5040721;28;20448;-76
2021/09/08 10:38:16;;;;;;;10.13;8.13;;;25.30;62.70;;;;;;5031292;28;20465;-76
2021/09/08 10:41:05;;;;;;;10.20;8.00;;;25.50;63.10;;;;;;5026103;28;20448;-76
2021/09/08 10:43:59;;;;;;;8.47;7.57;;;25.70;58.90;;;;;;5030168;28;20491;-76
2021/09/08 10:46:56;;;;;;;9.33;7.87;;;25.90;57.10;;;;;;5026232;28;20441;-76
2021/09/08 10:49:52;;;;;;;10.40;8.30;;;26.10;58.60;;;;;;5041182;28;20460;-76
2021/09/08 10:52:46;;;;;;;11.67;8.97;;;26.20;55.60;;;;;;5035994;28;20536;-74
2021/09/08 10:55:44;;;;;;;10.60;8.20;;;26.40;54.10;;;;;;5044074;28;20983;-74
2021/09/08 10:58:59;;;;;;;10.53;7.57;;;26.50;51.60;;;;;;5033043;28;20445;-75
2021/09/08 11:01:45;;;;;;;9.33;8.30;;;26.60;52.00;;;;;;5046116;28;20496;-76
2021/09/08 11:04:31;;;;;;;13.70;7.90;;;26.70;49.20;;;;;;5028029;28;20436;-76
2021/09/08 11:07:19;;;;;;;8.63;6.83;;;26.80;50.50;;;;;;5033684;28;20428;-75
2021/09/08 11:10:06;;;;;;;8.50;7.57;;;26.80;46.40;;;;;;5032639;28;20504;-75
2021/09/08 11:12:54;;;;;;;9.27;7.60;;;26.80;46.40;;;;;;5052396;28;20449;-76
2021/09/08 11:15:41;;;;;;;8.67;6.77;;;26.90;45.10;;;;;;5015997;28;20413;-75
2021/09/08 11:18:34;;;;;;;9.30;7.57;;;26.90;42.80;;;;;;5024757;28;20461;-76
2021/09/08 11:21:24;;;;;;;13.50;7.90;;;26.90;46.40;;;;;;5012553;28;20447;-75
2021/09/08 11:24:13;;;;;;;10.37;7.50;;;27.00;46.50;;;;;;5011287;28;20458;-75
2021/09/08 11:27:08;;;;;;;10.90;7.90;;;27.00;43.30;;;;;;5038290;28;20425;-76
2021/09/08 11:30:02;;;;;;;11.53;7.33;;;27.00;46.60;;;;;;5052592;28;20411;-76
2021/09/08 11:32:52;;;;;;;10.20;7.30;;;27.10;45.90;;;;;;5044385;28;20513;-76
2021/09/08 11:35:42;;;;;;;7.37;6.57;;;27.30;45.30;;;;;;5014384;28;20902;-75
2021/09/08 11:38:30;;;;;;;7.93;7.13;;;27.30;41.30;;;;;;5039558;28;20449;-75
2021/09/08 11:41:19;;;;;;;8.17;6.43;;;27.30;43.20;;;;;;5032709;28;20790;-75
2021/09/08 11:44:05;;;;;;;10.00;7.10;;;27.40;43.40;;;;;;5021316;28;21367;-75
2021/09/08 11:46:50;;;;;;;9.27;8.00;;;27.50;43.80;;;;;;5039617;28;20434;-76
2021/09/08 11:49:36;;;;;;;9.07;7.10;;;27.60;44.50;;;;;;5033995;28;20459;-76
2021/09/08 11:52:22;;;;;;;9.80;8.00;;;27.70;43.10;;;;;;5017691;28;20836;-72
2021/09/08 11:55:22;;;;;;;10.87;7.10;;;27.60;42.90;;;;;;5030302;28;20424;-74
2021/09/08 11:58:20;;;;;;;16.13;7.20;;;27.70;42.80;;;;;;5020675;28;20410;-74
2021/09/08 12:01:08;;;;;;;10.53;7.87;;;27.80;43.90;;;;;;5012130;28;20441;-74
2021/09/08 12:03:57;;;;;;;10.43;6.80;;;27.90;40.20;;;;;;5029617;28;20553;-74
2021/09/08 12:06:58;;;;;;;7.80;6.80;;;28.00;40.90;;;;;;5034922;28;20466;-74
2021/09/08 12:09:44;;;;;;;11.23;6.20;;;28.10;39.30;;;;;;5044948;28;20481;-74
2021/09/08 12:12:29;;;;;;;8.63;7.33;;;28.10;37.70;;;;;;5016464;28;20448;-74
2021/09/08 12:15:32;;;;;;;9.17;7.30;;;28.10;36.50;;;;;;5015133;28;20825;-73
2021/09/08 12:18:18;;;;;;;12.40;7.30;;;28.10;40.00;;;;;;5044307;28;20767;-73
2021/09/08 12:21:19;;;;;;;8.57;7.43;;;28.20;40.40;;;;;;5028082;28;20447;-74
2021/09/08 12:24:19;;;;;;;8.23;6.87;;;28.40;40.50;;;;;;5039357;28;20465;-73
2021/09/08 12:27:23;;;;;;;9.10;7.33;;;28.60;39.40;;;;;;5032393;28;20553;-74
2021/09/08 12:30:11;;;;;;;9.93;7.47;;;28.60;37.20;;;;;;5023953;28;20444;-73
2021/09/08 12:33:02;;;;;;;11.70;7.87;;;28.70;38.20;;;;;;5024367;28;20473;-73
2021/09/08 12:35:51;;;;;;;9.33;7.23;;;28.50;36.20;;;;;;5032237;28;20479;-73
2021/09/08 12:38:40;;;;;;;10.47;7.70;;;28.60;41.80;;;;;;5031316;28;20485;-74
2021/09/08 12:41:28;;;;;;;8.60;7.13;;;28.80;37.70;;;;;;5021341;28;20612;-74
2021/09/08 12:44:13;;;;;;;10.93;7.47;;;28.90;37.60;;;;;;5038406;28;20606;-74
2021/09/08 12:47:08;;;;;;;10.07;7.30;;;29.10;39.80;;;;;;5036214;28;20963;-74
2021/09/08 12:49:55;;;;;;;11.33;8.10;;;29.30;37.00;;;;;;5034469;28;20468;-74
2021/09/08 12:52:41;;;;;;;9.70;8.00;;;29.50;37.70;;;;;;5031470;28;20521;-74
2021/09/08 12:55:27;;;;;;;8.87;6.83;;;29.70;37.60;;;;;;5036369;28;20533;-73
2021/09/08 12:58:12;;;;;;;9.60;7.40;;;29.80;36.00;;;;;;5023499;28;20428;-73
2021/09/08 13:00:58;;;;;;;7.57;6.77;;;30.00;36.00;;;;;;5028312;28;20446;-74
2021/09/08 13:03:44;;;;;;;11.80;6.80;;;30.20;37.60;;;;;;5032031;28;21047;-73
2021/09/08 13:06:30;;;;;;;10.47;7.30;;;30.30;34.90;;;;;;5033103;28;20436;-73
2021/09/08 13:09:16;;;;;;;9.60;8.10;;;30.50;37.80;;;;;;5028984;28;20501;-74
2021/09/08 13:12:03;;;;;;;10.07;7.60;;;30.60;35.10;;;;;;5038824;28;20744;-74
2021/09/08 13:14:48;;;;;;;8.70;7.80;;;30.70;35.90;;;;;;5042941;28;20861;-74
2021/09/08 13:17:34;;;;;;;9.57;7.87;;;30.70;33.60;;;;;;5052833;28;20454;-74
2021/09/08 13:20:19;;;;;;;9.30;7.77;;;30.80;35.30;;;;;;5019619;28;20449;-74
2021/09/08 13:23:06;;;;;;;12.30;7.00;;;30.90;35.30;;;;;;5036418;28;20501;-74
2021/09/08 13:25:52;;;;;;;10.67;7.40;;;30.80;34.30;;;;;;5036331;28;20457;-74
2021/09/08 13:28:38;;;;;;;7.67;6.50;;;30.80;31.90;;;;;;5037402;28;20444;-74
2021/09/08 13:31:24;;;;;;;8.73;7.47;;;30.90;34.20;;;;;;5023299;28;20507;-74
2021/09/08 13:34:10;;;;;;;8.40;6.97;;;31.10;33.30;;;;;;5029706;28;20518;-73
2021/09/08 13:36:56;;;;;;;8.90;7.50;;;31.20;32.40;;;;;;5036270;28;20569;-74
2021/09/08 13:39:43;;;;;;;10.27;7.40;;;31.20;33.70;;;;;;5026507;28;20507;-75
2021/09/08 13:42:29;;;;;;;9.27;7.07;;;31.30;30.30;;;;;;5036372;28;20474;-72
2021/09/08 13:45:15;;;;;;;16.43;8.03;;;31.20;31.60;;;;;;5010891;28;20548;-74
2021/09/08 13:48:00;;;;;;;9.00;7.03;;;31.30;30.30;;;;;;5017291;28;20455;-73
2021/09/08 13:50:47;;;;;;;9.67;7.00;;;31.40;32.20;;;;;;5034179;28;20519;-75
2021/09/08 13:53:32;;;;;;;9.67;7.10;;;31.30;32.00;;;;;;5033659;28;20532;-73
2021/09/08 13:56:19;;;;;;;9.90;7.17;;;31.40;33.00;;;;;;5032743;28;20570;-73
2021/09/08 13:59:05;;;;;;;9.00;7.50;;;31.40;32.20;;;;;;5033907;28;20430;-73
2021/09/08 14:01:54;;;;;;;8.80;7.40;;;31.40;31.80;;;;;;5032708;28;20488;-74
2021/09/08 14:04:39;;;;;;;10.13;7.67;;;31.50;33.20;;;;;;5010711;28;20839;-73
2021/09/08 14:07:26;;;;;;;8.47;7.40;;;31.50;32.00;;;;;;5025412;28;20452;-75
2021/09/08 14:10:12;;;;;;;8.60;7.50;;;31.70;30.50;;;;;;5034174;28;20480;-75
2021/09/08 14:12:58;;;;;;;8.43;7.10;;;31.70;31.70;;;;;;5043136;28;20463;-75